createdAt,value
2019-05-15T00:00:55.150Z,1010.20
2019-05-15T00:01:55.191Z,1010.17
2019-05-15T00:02:55.120Z,1010.16
2019-05-15T00:03:55.107Z,1010.13
2019-05-15T00:04:55.094Z,1010.21
2019-05-15T00:05:55.093Z,1010.15
2019-05-15T00:06:55.085Z,1010.11
2019-05-15T00:07:55.136Z,1010.19
2019-05-15T00:08:55.076Z,1010.13
2019-05-15T00:09:55.056Z,1010.15
2019-05-15T00:10:55.043Z,1010.20
2019-05-15T00:11:55.037Z,1010.15
2019-05-15T00:12:55.012Z,1010.10
2019-05-15T00:13:55.060Z,1010.11
2019-05-15T00:14:54.983Z,1010.06
2019-05-15T00:15:55.019Z,1010.09
2019-05-15T00:16:54.979Z,1010.11
2019-05-15T00:17:54.951Z,1010.12
2019-05-15T00:18:54.935Z,1010.11
2019-05-15T00:19:54.995Z,1010.07
2019-05-15T00:20:54.930Z,1010.14
2019-05-15T00:21:54.912Z,1010.07
2019-05-15T00:22:54.909Z,1010.05
2019-05-15T00:23:54.893Z,1010.04
2019-05-15T00:24:54.875Z,1010.07
2019-05-15T00:25:54.916Z,1010.11
2019-05-15T00:26:54.845Z,1010.14
2019-05-15T00:27:54.833Z,1010.10
2019-05-15T00:29:08.506Z,1010.14
2019-05-15T00:29:57.797Z,1010.09
2019-05-15T00:30:54.800Z,1010.07
2019-05-15T00:31:55.005Z,1010.00
2019-05-15T00:32:54.778Z,1010.05
2019-05-15T00:33:54.784Z,1010.08
2019-05-15T00:34:54.757Z,1010.05
2019-05-15T00:35:54.766Z,1010.04
2019-05-15T00:36:54.738Z,1010.06
2019-05-15T00:37:54.792Z,1010.03
2019-05-15T00:38:54.711Z,1010.00
2019-05-15T00:39:54.723Z,1010.00
2019-05-15T00:40:54.700Z,1009.96
2019-05-15T00:41:54.961Z,1009.91
2019-05-15T00:42:54.677Z,1009.99
2019-05-15T00:43:54.866Z,1010.03
2019-05-15T00:44:54.656Z,1009.92
2019-05-15T00:45:54.631Z,1009.91
2019-05-15T00:46:54.625Z,1009.87
2019-05-15T00:47:54.618Z,1009.85
2019-05-15T00:48:54.635Z,1009.86
2019-05-15T00:49:54.653Z,1009.85
2019-05-15T00:50:54.577Z,1009.86
2019-05-15T00:51:54.591Z,1009.81
2019-05-15T00:52:54.566Z,1009.80
2019-05-15T00:53:54.558Z,1009.78
2019-05-15T00:54:54.546Z,1009.78
2019-05-15T00:55:54.594Z,1009.84
2019-05-15T00:56:54.504Z,1009.81
2019-05-15T00:57:54.500Z,1009.80
2019-05-15T00:58:54.492Z,1009.78
2019-05-15T00:59:54.497Z,1009.79
2019-05-15T01:00:54.487Z,1009.73
2019-05-15T01:01:54.547Z,1009.75
2019-05-15T01:02:54.448Z,1009.71
2019-05-15T01:03:54.435Z,1009.71
2019-05-15T01:04:54.432Z,1009.71
2019-05-15T01:05:54.411Z,1009.70
2019-05-15T01:06:54.392Z,1009.65
2019-05-15T01:07:54.483Z,1009.67
2019-05-15T01:08:54.377Z,1009.72
2019-05-15T01:09:54.369Z,1009.66
2019-05-15T01:10:54.353Z,1009.64
2019-05-15T01:11:54.338Z,1009.53
2019-05-15T01:12:54.341Z,1009.54
2019-05-15T01:13:55.277Z,1009.60
2019-05-15T01:14:54.301Z,1009.54
2019-05-15T01:15:54.295Z,1009.52
2019-05-15T01:16:54.287Z,1009.56
2019-05-15T01:17:54.279Z,1009.53
2019-05-15T01:18:54.276Z,1009.56
2019-05-15T01:19:54.337Z,1009.56
2019-05-15T01:20:54.237Z,1009.62
2019-05-15T01:21:54.226Z,1009.58
2019-05-15T01:22:54.214Z,1009.60
2019-05-15T01:23:54.198Z,1009.55
2019-05-15T01:24:54.191Z,1009.56
2019-05-15T01:25:54.247Z,1009.52
2019-05-15T01:26:54.171Z,1009.55
2019-05-15T01:27:54.191Z,1009.50
2019-05-15T01:28:54.162Z,1009.57
2019-05-15T01:29:54.146Z,1009.54
2019-05-15T01:30:54.140Z,1009.52
2019-05-15T01:31:54.173Z,1009.52
2019-05-15T01:32:54.102Z,1009.43
2019-05-15T01:33:54.109Z,1009.53
2019-05-15T01:34:54.079Z,1009.49
2019-05-15T01:35:54.078Z,1009.55
2019-05-15T01:36:54.058Z,1009.55
2019-05-15T01:37:54.106Z,1009.52
2019-05-15T01:38:54.053Z,1009.45
2019-05-15T01:39:54.037Z,1009.46
2019-05-15T01:40:54.028Z,1009.45
2019-05-15T01:41:53.996Z,1009.43
2019-05-15T01:42:53.996Z,1009.39
2019-05-15T01:43:54.090Z,1009.41
2019-05-15T01:44:54.008Z,1009.37
2019-05-15T01:45:53.970Z,1009.43
2019-05-15T01:46:53.943Z,1009.45
2019-05-15T01:47:53.930Z,1009.41
2019-05-15T01:48:53.924Z,1009.45
2019-05-15T01:49:53.999Z,1009.43
2019-05-15T01:50:53.909Z,1009.40
2019-05-15T01:51:53.889Z,1009.49
2019-05-15T01:52:53.884Z,1009.45
2019-05-15T01:53:53.872Z,1009.42
2019-05-15T01:54:53.851Z,1009.46
2019-05-15T01:55:53.911Z,1009.43
2019-05-15T01:56:53.890Z,1009.41
2019-05-15T01:57:53.830Z,1009.45
2019-05-15T01:58:53.823Z,1009.44
2019-05-15T01:59:57.445Z,1009.48
2019-05-15T02:00:54.848Z,1009.48
2019-05-15T02:01:53.780Z,1009.44
2019-05-15T02:02:53.786Z,1009.42
2019-05-15T02:03:53.765Z,1009.52
2019-05-15T02:04:53.745Z,1009.42
2019-05-15T02:05:53.725Z,1009.42
2019-05-15T02:06:53.799Z,1009.47
2019-05-15T02:07:53.706Z,1009.47
2019-05-15T02:08:53.696Z,1009.49
2019-05-15T02:09:53.690Z,1009.39
2019-05-15T02:10:53.678Z,1009.45
2019-05-15T02:11:53.659Z,1009.46
2019-05-15T02:12:53.741Z,1009.43
2019-05-15T02:13:53.636Z,1009.37
2019-05-15T02:14:53.624Z,1009.42
2019-05-15T02:15:53.624Z,1009.39
2019-05-15T02:16:53.614Z,1009.39
2019-05-15T02:17:53.602Z,1009.42
2019-05-15T02:18:53.656Z,1009.47
2019-05-15T02:19:53.584Z,1009.42
2019-05-15T02:20:53.595Z,1009.45
2019-05-15T02:21:53.562Z,1009.49
2019-05-15T02:22:53.540Z,1009.43
2019-05-15T02:23:53.521Z,1009.42
2019-05-15T02:24:53.593Z,1009.45
2019-05-15T02:25:53.501Z,1009.48
2019-05-15T02:26:53.495Z,1009.53
2019-05-15T02:27:53.482Z,1009.41
2019-05-15T02:28:53.487Z,1009.52
2019-05-15T02:29:53.463Z,1009.46
2019-05-15T02:30:53.514Z,1009.40
2019-05-15T02:31:53.437Z,1009.45
2019-05-15T02:32:53.436Z,1009.43
2019-05-15T02:33:53.424Z,1009.40
2019-05-15T02:34:53.409Z,1009.35
2019-05-15T02:35:53.454Z,1009.36
2019-05-15T02:36:53.457Z,1009.34
2019-05-15T02:37:53.378Z,1009.39
2019-05-15T02:38:53.365Z,1009.39
2019-05-15T02:39:53.368Z,1009.36
2019-05-15T02:40:53.359Z,1009.37
2019-05-15T02:41:53.316Z,1009.33
2019-05-15T02:42:53.379Z,1009.25
2019-05-15T02:43:53.297Z,1009.28
2019-05-15T02:44:53.297Z,1009.31
2019-05-15T02:45:53.297Z,1009.32
2019-05-15T02:46:53.278Z,1009.28
2019-05-15T02:47:53.246Z,1009.30
2019-05-15T02:48:53.447Z,1009.28
2019-05-15T02:49:53.264Z,1009.26
2019-05-15T02:50:53.209Z,1009.35
2019-05-15T02:51:53.200Z,1009.23
2019-05-15T02:52:53.190Z,1009.24
2019-05-15T02:53:53.178Z,1009.28
2019-05-15T02:54:53.238Z,1009.21
2019-05-15T02:55:53.155Z,1009.23
2019-05-15T02:56:53.147Z,1009.25
2019-05-15T02:57:53.146Z,1009.23
2019-05-15T02:58:53.151Z,1009.29
2019-05-15T02:59:53.120Z,1009.21
2019-05-15T03:00:53.746Z,1009.25
2019-05-15T03:01:53.087Z,1009.21
2019-05-15T03:02:53.074Z,1009.27
2019-05-15T03:03:53.067Z,1009.31
2019-05-15T03:04:53.054Z,1009.37
2019-05-15T03:05:53.061Z,1009.29
2019-05-15T03:06:53.097Z,1009.29
2019-05-15T03:07:53.027Z,1009.28
2019-05-15T03:08:53.021Z,1009.24
2019-05-15T03:09:52.998Z,1009.22
2019-05-15T03:10:52.986Z,1009.30
2019-05-15T03:11:52.977Z,1009.27
2019-05-15T03:12:53.053Z,1009.22
2019-05-15T03:13:52.949Z,1009.19
2019-05-15T03:14:52.955Z,1009.19
2019-05-15T03:15:52.965Z,1009.26
2019-05-15T03:16:52.915Z,1009.23
2019-05-15T03:17:52.905Z,1009.27
2019-05-15T03:18:55.727Z,1009.29
2019-05-15T03:19:52.903Z,1009.31
2019-05-15T03:20:52.873Z,1009.24
2019-05-15T03:21:52.872Z,1009.29
2019-05-15T03:22:52.851Z,1009.30
2019-05-15T03:23:52.839Z,1009.28
2019-05-15T03:24:52.915Z,1009.28
2019-05-15T03:25:52.812Z,1009.33
2019-05-15T03:26:52.830Z,1009.21
2019-05-15T03:27:52.789Z,1009.26
2019-05-15T03:28:52.781Z,1009.28
2019-05-15T03:29:52.775Z,1009.24
2019-05-15T03:31:15.543Z,1009.34
2019-05-15T03:32:13.434Z,1009.28
2019-05-15T03:33:02.254Z,1009.29
2019-05-15T03:33:54.999Z,1009.28
2019-05-15T03:34:56.561Z,1009.22
2019-05-15T03:35:55.015Z,1009.26
2019-05-15T03:36:53.503Z,1009.36
2019-05-15T03:37:52.673Z,1009.35
2019-05-15T03:38:52.666Z,1009.26
2019-05-15T03:39:52.652Z,1009.32
2019-05-15T03:40:52.647Z,1009.29
2019-05-15T03:41:52.701Z,1009.28
2019-05-15T03:42:52.621Z,1009.34
2019-05-15T03:43:52.606Z,1009.24
2019-05-15T03:44:52.601Z,1009.23
2019-05-15T03:45:52.593Z,1009.25
2019-05-15T03:46:52.574Z,1009.25
2019-05-15T03:47:52.638Z,1009.27
2019-05-15T03:48:52.552Z,1009.26
2019-05-15T03:49:52.539Z,1009.27
2019-05-15T03:50:52.540Z,1009.27
2019-05-15T03:51:52.537Z,1009.30
2019-05-15T03:52:52.519Z,1009.34
2019-05-15T03:53:52.571Z,1009.37
2019-05-15T03:54:52.495Z,1009.35
2019-05-15T03:55:52.467Z,1009.36
2019-05-15T03:56:52.458Z,1009.27
2019-05-15T03:57:52.454Z,1009.28
2019-05-15T03:58:52.435Z,1009.31
2019-05-15T03:59:52.492Z,1009.35
2019-05-15T04:00:52.407Z,1009.35
2019-05-15T04:01:52.398Z,1009.34
2019-05-15T04:02:52.384Z,1009.38
2019-05-15T04:03:52.380Z,1009.23
2019-05-15T04:04:56.558Z,1009.28
2019-05-15T04:05:53.425Z,1009.23
2019-05-15T04:06:52.339Z,1009.27
2019-05-15T04:07:52.326Z,1009.31
2019-05-15T04:08:52.314Z,1009.30
2019-05-15T04:09:52.305Z,1009.17
2019-05-15T04:10:52.295Z,1009.16
2019-05-15T04:11:52.358Z,1009.17
2019-05-15T04:12:52.273Z,1009.20
2019-05-15T04:13:52.258Z,1009.28
2019-05-15T04:14:52.258Z,1009.20
2019-05-15T04:15:52.236Z,1009.34
2019-05-15T04:16:52.231Z,1009.30
2019-05-15T04:17:52.279Z,1009.32
2019-05-15T04:18:52.202Z,1009.35
2019-05-15T04:19:52.195Z,1009.34
2019-05-15T04:20:52.182Z,1009.31
2019-05-15T04:21:52.168Z,1009.27
2019-05-15T04:22:52.158Z,1009.30
2019-05-15T04:23:52.211Z,1009.27
2019-05-15T04:24:52.134Z,1009.31
2019-05-15T04:25:52.124Z,1009.33
2019-05-15T04:26:52.113Z,1009.38
2019-05-15T04:27:52.150Z,1009.35
2019-05-15T04:28:52.138Z,1009.29
2019-05-15T04:29:52.164Z,1009.38
2019-05-15T04:30:52.071Z,1009.38
2019-05-15T04:32:01.072Z,1009.30
2019-05-15T04:32:53.055Z,1009.34
2019-05-15T04:33:52.100Z,1009.41
2019-05-15T04:34:52.036Z,1009.33
2019-05-15T04:35:52.083Z,1009.30
2019-05-15T04:36:52.024Z,1009.34
2019-05-15T04:37:51.999Z,1009.44
2019-05-15T04:38:52.055Z,1009.39
2019-05-15T04:39:52.056Z,1009.40
2019-05-15T04:40:51.965Z,1009.41
2019-05-15T04:41:52.220Z,1009.38
2019-05-15T04:42:51.969Z,1009.33
2019-05-15T04:43:51.932Z,1009.36
2019-05-15T04:44:51.945Z,1009.32
2019-05-15T04:45:51.906Z,1009.37
2019-05-15T04:46:51.899Z,1009.44
2019-05-15T04:47:51.990Z,1009.39
2019-05-15T04:48:51.872Z,1009.35
2019-05-15T04:49:51.873Z,1009.45
2019-05-15T04:50:51.869Z,1009.39
2019-05-15T04:51:51.839Z,1009.38
2019-05-15T04:52:51.831Z,1009.33
2019-05-15T04:53:51.966Z,1009.48
2019-05-15T04:54:51.814Z,1009.42
2019-05-15T04:55:51.835Z,1009.41
2019-05-15T04:56:51.820Z,1009.44
2019-05-15T04:57:51.786Z,1009.39
2019-05-15T04:58:51.754Z,1009.35
2019-05-15T04:59:52.009Z,1009.42
2019-05-15T05:00:51.751Z,1009.42
2019-05-15T05:02:13.010Z,1009.34
2019-05-15T05:02:52.713Z,1009.34
2019-05-15T05:03:51.700Z,1009.45
2019-05-15T05:04:51.698Z,1009.40
2019-05-15T05:05:51.777Z,1009.38
2019-05-15T05:06:51.664Z,1009.38
2019-05-15T05:07:51.676Z,1009.37
2019-05-15T05:08:51.647Z,1009.40
2019-05-15T05:09:51.632Z,1009.37
2019-05-15T05:10:51.622Z,1009.36
2019-05-15T05:11:51.676Z,1009.34
2019-05-15T05:12:51.598Z,1009.40
2019-05-15T05:13:51.598Z,1009.36
2019-05-15T05:14:51.588Z,1009.41
2019-05-15T05:15:51.569Z,1009.45
2019-05-15T05:16:51.554Z,1009.46
2019-05-15T05:17:51.618Z,1009.46
2019-05-15T05:18:51.526Z,1009.50
2019-05-15T05:19:51.567Z,1009.54
2019-05-15T05:20:51.512Z,1009.45
2019-05-15T05:21:51.499Z,1009.51
2019-05-15T05:22:51.511Z,1009.46
2019-05-15T05:23:51.691Z,1009.49
2019-05-15T05:24:51.459Z,1009.44
2019-05-15T05:25:51.446Z,1009.50
2019-05-15T05:26:51.440Z,1009.44
2019-05-15T05:27:51.422Z,1009.52
2019-05-15T05:28:51.417Z,1009.50
2019-05-15T05:29:51.620Z,1009.43
2019-05-15T05:30:51.397Z,1009.44
2019-05-15T05:31:51.376Z,1009.50
2019-05-15T05:32:51.371Z,1009.53
2019-05-15T05:33:51.354Z,1009.48
2019-05-15T05:34:51.340Z,1009.48
2019-05-15T05:35:51.397Z,1009.53
2019-05-15T05:36:51.330Z,1009.55
2019-05-15T05:37:51.310Z,1009.44
2019-05-15T05:38:51.295Z,1009.44
2019-05-15T05:39:51.284Z,1009.48
2019-05-15T05:40:51.292Z,1009.45
2019-05-15T05:41:51.331Z,1009.40
2019-05-15T05:42:51.259Z,1009.43
2019-05-15T05:43:51.242Z,1009.40
2019-05-15T05:44:51.228Z,1009.44
2019-05-15T05:45:51.216Z,1009.43
2019-05-15T05:46:51.206Z,1009.39
2019-05-15T05:47:51.269Z,1009.45
2019-05-15T05:48:51.191Z,1009.49
2019-05-15T05:49:51.170Z,1009.46
2019-05-15T05:50:51.160Z,1009.46
2019-05-15T05:51:51.151Z,1009.47
2019-05-15T05:52:51.135Z,1009.44
2019-05-15T05:53:51.339Z,1009.42
2019-05-15T05:54:51.123Z,1009.48
2019-05-15T05:55:53.196Z,1009.46
2019-05-15T05:56:51.092Z,1009.46
2019-05-15T05:57:51.086Z,1009.46
2019-05-15T05:58:51.070Z,1009.53
2019-05-15T05:59:51.124Z,1009.46
2019-05-15T06:00:51.052Z,1009.53
2019-05-15T06:01:51.039Z,1009.48
2019-05-15T06:02:52.303Z,1009.51
2019-05-15T06:03:51.018Z,1009.53
2019-05-15T06:04:51.001Z,1009.51
2019-05-15T06:05:51.056Z,1009.51
2019-05-15T06:07:06.055Z,1009.53
2019-05-15T06:07:51.969Z,1009.51
2019-05-15T06:08:50.953Z,1009.49
2019-05-15T06:09:50.942Z,1009.59
2019-05-15T06:10:50.932Z,1009.51
2019-05-15T06:11:50.986Z,1009.53
2019-05-15T06:12:50.917Z,1009.57
2019-05-15T06:13:52.614Z,1009.50
2019-05-15T06:14:50.885Z,1009.51
2019-05-15T06:15:50.883Z,1009.46
2019-05-15T06:16:50.865Z,1009.49
2019-05-15T06:17:50.918Z,1009.58
2019-05-15T06:18:50.851Z,1009.62
2019-05-15T06:19:50.861Z,1009.60
2019-05-15T06:20:50.815Z,1009.60
2019-05-15T06:21:56.679Z,1009.58
2019-05-15T06:22:51.864Z,1009.56
2019-05-15T06:23:55.164Z,1009.58
2019-05-15T06:24:51.774Z,1009.60
2019-05-15T06:25:50.760Z,1009.53
2019-05-15T06:26:50.754Z,1009.52
2019-05-15T06:27:50.739Z,1009.52
2019-05-15T06:28:50.837Z,1009.52
2019-05-15T06:29:50.724Z,1009.54
2019-05-15T06:30:50.703Z,1009.51
2019-05-15T06:31:50.688Z,1009.56
2019-05-15T06:33:04.548Z,1009.59
2019-05-15T06:33:51.752Z,1009.50
2019-05-15T06:34:50.653Z,1009.54
2019-05-15T06:35:50.649Z,1009.56
2019-05-15T06:36:50.631Z,1009.59
2019-05-15T06:37:50.620Z,1009.54
2019-05-15T06:38:50.614Z,1009.55
2019-05-15T06:39:50.818Z,1009.49
2019-05-15T06:40:50.586Z,1009.53
2019-05-15T06:41:50.586Z,1009.54
2019-05-15T06:42:50.569Z,1009.58
2019-05-15T06:43:50.551Z,1009.62
2019-05-15T06:44:50.545Z,1009.58
2019-05-15T06:45:50.610Z,1009.59
2019-05-15T06:46:50.534Z,1009.53
2019-05-15T06:47:50.512Z,1009.53
2019-05-15T06:48:50.503Z,1009.52
2019-05-15T06:49:50.483Z,1009.52
2019-05-15T06:50:50.473Z,1009.58
2019-05-15T06:51:50.527Z,1009.64
2019-05-15T06:52:50.454Z,1009.58
2019-05-15T06:53:50.434Z,1009.55
2019-05-15T06:54:50.428Z,1009.64
2019-05-15T06:55:50.411Z,1009.63
2019-05-15T06:56:50.405Z,1009.66
2019-05-15T06:57:50.460Z,1009.59
2019-05-15T06:58:50.380Z,1009.58
2019-05-15T06:59:50.366Z,1009.68
2019-05-15T07:00:50.355Z,1009.72
2019-05-15T07:01:50.347Z,1009.69
2019-05-15T07:02:50.339Z,1009.63
2019-05-15T07:03:50.394Z,1009.67
2019-05-15T07:04:50.309Z,1009.63
2019-05-15T07:05:51.073Z,1009.67
2019-05-15T07:06:50.290Z,1009.64
2019-05-15T07:07:50.277Z,1009.64
2019-05-15T07:08:50.269Z,1009.60
2019-05-15T07:09:50.341Z,1009.63
2019-05-15T07:10:50.260Z,1009.53
2019-05-15T07:11:50.233Z,1009.58
2019-05-15T07:12:51.524Z,1009.59
2019-05-15T07:13:50.206Z,1009.56
2019-05-15T07:14:50.205Z,1009.57
2019-05-15T07:15:50.255Z,1009.56
2019-05-15T07:16:50.180Z,1009.60
2019-05-15T07:17:50.177Z,1009.51
2019-05-15T07:18:50.156Z,1009.59
2019-05-15T07:19:50.138Z,1009.62
2019-05-15T07:20:50.156Z,1009.55
2019-05-15T07:21:50.188Z,1009.58
2019-05-15T07:22:50.116Z,1009.60
2019-05-15T07:23:50.105Z,1009.49
2019-05-15T07:24:51.706Z,1009.57
2019-05-15T07:25:50.408Z,1009.57
2019-05-15T07:26:50.062Z,1009.61
2019-05-15T07:27:50.116Z,1009.55
2019-05-15T07:28:50.036Z,1009.48
2019-05-15T07:29:50.025Z,1009.57
2019-05-15T07:30:50.019Z,1009.55
2019-05-15T07:31:50.000Z,1009.53
2019-05-15T07:32:49.995Z,1009.55
2019-05-15T07:33:50.209Z,1009.58
2019-05-15T07:34:49.979Z,1009.52
2019-05-15T07:35:49.966Z,1009.57
2019-05-15T07:36:49.963Z,1009.53
2019-05-15T07:37:49.941Z,1009.51
2019-05-15T07:38:49.931Z,1009.50
2019-05-15T07:39:50.000Z,1009.52
2019-05-15T07:40:59.289Z,1009.51
2019-05-15T07:41:50.902Z,1009.56
2019-05-15T07:42:49.883Z,1009.51
2019-05-15T07:43:49.864Z,1009.52
2019-05-15T07:44:49.858Z,1009.58
2019-05-15T07:45:55.292Z,1009.42
2019-05-15T07:46:50.843Z,1009.48
2019-05-15T07:47:49.818Z,1009.43
2019-05-15T07:48:49.843Z,1009.48
2019-05-15T07:49:49.796Z,1009.43
2019-05-15T07:50:50.073Z,1009.43
2019-05-15T07:51:49.847Z,1009.48
2019-05-15T07:52:49.787Z,1009.47
2019-05-15T07:53:49.753Z,1009.42
2019-05-15T07:54:49.740Z,1009.44
2019-05-15T07:55:51.165Z,1009.46
2019-05-15T07:56:49.729Z,1009.47
2019-05-15T07:57:49.769Z,1009.44
2019-05-15T07:58:52.458Z,1009.49
2019-05-15T07:59:49.680Z,1009.46
2019-05-15T08:00:49.672Z,1009.41
2019-05-15T08:01:49.657Z,1009.56
2019-05-15T08:02:49.650Z,1009.50
2019-05-15T08:03:58.979Z,1009.54
2019-05-15T08:04:50.633Z,1009.54
2019-05-15T08:05:58.631Z,1009.58
2019-05-15T08:06:50.603Z,1009.53
2019-05-15T08:07:49.594Z,1009.43
2019-05-15T08:08:49.608Z,1009.54
2019-05-15T08:09:49.645Z,1009.50
2019-05-15T08:10:49.552Z,1009.45
2019-05-15T08:11:49.555Z,1009.51
2019-05-15T08:12:49.699Z,1009.55
2019-05-15T08:13:49.521Z,1009.47
2019-05-15T08:14:50.855Z,1009.42
2019-05-15T08:15:49.568Z,1009.44
2019-05-15T08:16:49.499Z,1009.43
2019-05-15T08:18:03.923Z,1009.48
2019-05-15T08:18:50.465Z,1009.38
2019-05-15T08:19:49.463Z,1009.47
2019-05-15T08:20:49.510Z,1009.42
2019-05-15T08:21:51.764Z,1009.45
2019-05-15T08:22:49.415Z,1009.47
2019-05-15T08:23:49.405Z,1009.49
2019-05-15T08:24:49.393Z,1009.57
2019-05-15T08:25:49.380Z,1009.49
2019-05-15T08:26:49.370Z,1009.47
2019-05-15T08:27:49.426Z,1009.40
2019-05-15T08:28:49.348Z,1009.49
2019-05-15T08:29:49.337Z,1009.45
2019-05-15T08:30:49.982Z,1009.41
2019-05-15T08:31:49.321Z,1009.49
2019-05-15T08:32:51.672Z,1009.44
2019-05-15T08:33:49.365Z,1009.39
2019-05-15T08:34:49.277Z,1009.47
2019-05-15T08:35:51.821Z,1009.50
2019-05-15T08:36:49.256Z,1009.45
2019-05-15T08:37:49.277Z,1009.46
2019-05-15T08:38:49.235Z,1009.45
2019-05-15T08:39:49.294Z,1009.47
2019-05-15T08:40:49.357Z,1009.50
2019-05-15T08:41:49.198Z,1009.45
2019-05-15T08:42:56.396Z,1009.40
2019-05-15T08:43:50.175Z,1009.28
2019-05-15T08:44:49.167Z,1009.38
2019-05-15T08:45:49.945Z,1009.33
2019-05-15T08:46:49.142Z,1009.37
2019-05-15T08:47:49.456Z,1009.41
2019-05-15T08:48:49.322Z,1009.36
2019-05-15T08:49:49.126Z,1009.32
2019-05-15T08:50:49.224Z,1009.32
2019-05-15T08:51:49.163Z,1009.26
2019-05-15T08:52:49.085Z,1009.28
2019-05-15T08:53:49.062Z,1009.34
2019-05-15T08:54:49.069Z,1009.29
2019-05-15T08:55:49.052Z,1009.30
2019-05-15T08:56:49.030Z,1009.32
2019-05-15T08:57:55.725Z,1009.30
2019-05-15T08:58:50.005Z,1009.35
2019-05-15T08:59:49.007Z,1009.26
2019-05-15T09:00:52.218Z,1009.30
2019-05-15T09:01:49.148Z,1009.28
2019-05-15T09:02:49.058Z,1009.27
2019-05-15T09:03:49.181Z,1009.27
2019-05-15T09:04:48.936Z,1009.32
2019-05-15T09:05:48.957Z,1009.23
2019-05-15T09:06:49.643Z,1009.23
2019-05-15T09:07:48.930Z,1009.19
2019-05-15T09:08:49.208Z,1009.22
2019-05-15T09:09:49.098Z,1009.19
2019-05-15T09:10:50.392Z,1009.16
2019-05-15T09:11:48.871Z,1009.17
2019-05-15T09:12:50.368Z,1009.17
2019-05-15T09:13:53.891Z,1009.21
2019-05-15T09:14:49.891Z,1009.26
2019-05-15T09:15:48.808Z,1009.21
2019-05-15T09:16:49.139Z,1009.24
2019-05-15T09:17:48.982Z,1009.23
2019-05-15T09:18:48.786Z,1009.16
2019-05-15T09:19:48.780Z,1009.19
2019-05-15T09:20:49.523Z,1009.20
2019-05-15T09:21:49.442Z,1009.22
2019-05-15T09:22:49.123Z,1009.19
2019-05-15T09:23:49.954Z,1009.20
2019-05-15T09:24:49.080Z,1009.10
2019-05-15T09:25:49.594Z,1009.10
2019-05-15T09:26:48.961Z,1009.18
2019-05-15T09:27:48.977Z,1009.13
2019-05-15T09:28:49.381Z,1009.15
2019-05-15T09:29:48.673Z,1009.16
2019-05-15T09:30:48.649Z,1009.05
2019-05-15T09:31:48.625Z,1009.08
2019-05-15T09:32:48.739Z,1009.07
2019-05-15T09:33:49.270Z,1009.04
2019-05-15T09:34:54.828Z,1009.05
2019-05-15T09:35:49.596Z,1009.08
2019-05-15T09:36:48.783Z,1009.11
2019-05-15T09:37:48.909Z,1009.08
2019-05-15T09:38:49.227Z,1008.95
2019-05-15T09:39:49.065Z,1008.89
2019-05-15T09:40:50.331Z,1008.92
2019-05-15T09:41:48.843Z,1009.00
2019-05-15T09:42:48.838Z,1009.02
2019-05-15T09:43:48.695Z,1008.94
2019-05-15T09:44:48.754Z,1009.00
2019-05-15T09:45:49.210Z,1008.99
2019-05-15T09:46:48.945Z,1008.94
2019-05-15T09:47:48.635Z,1009.01
2019-05-15T09:48:51.592Z,1008.98
2019-05-15T09:49:48.642Z,1008.94
2019-05-15T09:50:49.249Z,1008.92
2019-05-15T09:51:49.043Z,1008.86
2019-05-15T09:52:50.154Z,1008.94
2019-05-15T09:53:48.641Z,1008.86
2019-05-15T09:54:49.297Z,1008.91
2019-05-15T09:55:49.431Z,1008.91
2019-05-15T09:56:49.478Z,1008.87
2019-05-15T09:57:49.062Z,1008.87
2019-05-15T09:58:48.949Z,1008.81
2019-05-15T09:59:48.886Z,1008.80
2019-05-15T10:00:52.249Z,1008.81
2019-05-15T10:01:49.359Z,1008.80
2019-05-15T10:02:48.741Z,1008.82
2019-05-15T10:03:48.584Z,1008.85
2019-05-15T10:04:57.377Z,1008.72
2019-05-15T10:05:49.256Z,1008.83
2019-05-15T10:06:48.656Z,1008.77
2019-05-15T10:07:48.286Z,1008.80
2019-05-15T10:08:49.061Z,1008.77
2019-05-15T10:09:48.814Z,1008.75
2019-05-15T10:10:48.892Z,1008.77
2019-05-15T10:11:49.203Z,1008.69
2019-05-15T10:12:49.486Z,1008.71
2019-05-15T10:13:48.217Z,1008.65
2019-05-15T10:14:49.208Z,1008.65
2019-05-15T10:15:50.827Z,1008.53
2019-05-15T10:16:48.606Z,1008.63
2019-05-15T10:17:51.046Z,1008.59
2019-05-15T10:18:51.215Z,1008.65
2019-05-15T10:19:48.855Z,1008.67
2019-05-15T10:20:48.084Z,1008.61
2019-05-15T10:21:52.853Z,1008.61
2019-05-15T10:22:49.042Z,1008.62
2019-05-15T10:23:49.256Z,1008.54
2019-05-15T10:24:50.825Z,1008.61
2019-05-15T10:25:48.657Z,1008.60
2019-05-15T10:26:49.040Z,1008.58
2019-05-15T10:27:48.765Z,1008.51
2019-05-15T10:28:49.262Z,1008.50
2019-05-15T10:29:48.432Z,1008.42
2019-05-15T10:30:49.283Z,1008.51
2019-05-15T10:31:48.342Z,1008.39
2019-05-15T10:32:48.715Z,1008.39
2019-05-15T10:33:49.188Z,1008.54
2019-05-15T10:34:47.908Z,1008.36
2019-05-15T10:35:47.894Z,1008.40
2019-05-15T10:36:49.500Z,1008.41
2019-05-15T10:37:48.850Z,1008.33
2019-05-15T10:38:48.836Z,1008.42
2019-05-15T10:39:52.096Z,1008.41
2019-05-15T10:40:59.816Z,1008.43
2019-05-15T10:41:48.829Z,1008.37
2019-05-15T10:42:49.509Z,1008.43
2019-05-15T10:43:55.855Z,1008.38
2019-05-15T10:44:48.934Z,1008.38
2019-05-15T10:45:50.101Z,1008.40
2019-05-15T10:46:48.419Z,1008.35
2019-05-15T10:47:49.563Z,1008.39
2019-05-15T10:48:49.323Z,1008.35
2019-05-15T10:49:48.469Z,1008.33
2019-05-15T10:50:47.728Z,1008.28
2019-05-15T10:51:47.713Z,1008.39
2019-05-15T10:52:48.949Z,1008.34
2019-05-15T10:53:48.822Z,1008.29
2019-05-15T10:54:47.698Z,1008.24
2019-05-15T10:55:49.501Z,1008.16
2019-05-15T10:56:47.660Z,1008.23
2019-05-15T10:57:47.704Z,1008.19
2019-05-15T10:58:50.216Z,1008.20
2019-05-15T10:59:47.905Z,1008.22
2019-05-15T11:00:49.384Z,1008.20
2019-05-15T11:01:48.695Z,1008.26
2019-05-15T11:02:48.955Z,1008.25
2019-05-15T11:03:49.505Z,1008.26
2019-05-15T11:04:48.719Z,1008.20
2019-05-15T11:05:49.137Z,1008.24
2019-05-15T11:06:49.033Z,1008.23
2019-05-15T11:07:48.218Z,1008.23
2019-05-15T11:08:51.027Z,1008.21
2019-05-15T11:09:48.945Z,1008.12
2019-05-15T11:10:49.443Z,1008.22
2019-05-15T11:11:51.197Z,1008.23
2019-05-15T11:12:47.654Z,1008.24
2019-05-15T11:13:47.532Z,1008.23
2019-05-15T11:14:47.462Z,1008.22
2019-05-15T11:15:49.119Z,1008.18
2019-05-15T11:16:48.681Z,1008.23
2019-05-15T11:17:49.201Z,1008.10
2019-05-15T11:18:48.180Z,1008.11
2019-05-15T11:19:49.782Z,1008.11
2019-05-15T11:20:48.638Z,1008.17
2019-05-15T11:21:48.498Z,1008.17
2019-05-15T11:22:50.006Z,1008.11
2019-05-15T11:23:49.370Z,1008.10
2019-05-15T11:24:50.795Z,1008.07
2019-05-15T11:25:48.899Z,1008.12
2019-05-15T11:26:50.000Z,1008.08
2019-05-15T11:27:48.452Z,1008.12
2019-05-15T11:28:49.668Z,1008.16
2019-05-15T11:29:47.764Z,1008.12
2019-05-15T11:30:49.005Z,1007.99
2019-05-15T11:31:48.763Z,1008.03
2019-05-15T11:32:48.605Z,1007.98
2019-05-15T11:33:49.250Z,1008.10
2019-05-15T11:34:49.264Z,1007.92
2019-05-15T11:36:00.139Z,1007.98
2019-05-15T11:36:48.666Z,1007.93
2019-05-15T11:37:56.036Z,1007.93
2019-05-15T11:38:48.570Z,1007.87
2019-05-15T11:39:47.501Z,1007.92
2019-05-15T11:40:47.148Z,1007.88
2019-05-15T11:41:49.297Z,1007.83
2019-05-15T11:42:48.795Z,1007.83
2019-05-15T11:43:49.550Z,1007.85
2019-05-15T11:44:48.404Z,1007.88
2019-05-15T11:45:48.175Z,1007.75
2019-05-15T11:46:49.367Z,1007.88
2019-05-15T11:47:48.316Z,1007.81
2019-05-15T11:48:49.704Z,1007.71
2019-05-15T11:49:47.055Z,1007.84
2019-05-15T11:50:47.038Z,1007.85
2019-05-15T11:51:49.177Z,1007.78
2019-05-15T11:52:47.022Z,1007.81
2019-05-15T11:53:49.223Z,1007.83
2019-05-15T11:54:49.450Z,1007.80
2019-05-15T11:55:48.081Z,1007.70
2019-05-15T11:56:49.059Z,1007.81
2019-05-15T11:57:50.501Z,1007.78
2019-05-15T11:58:46.950Z,1007.82
2019-05-15T11:59:54.778Z,1007.74
2019-05-15T12:00:49.155Z,1007.79
2019-05-15T12:01:48.933Z,1007.82
2019-05-15T12:02:46.900Z,1007.77
2019-05-15T12:03:46.893Z,1007.76
2019-05-15T12:04:46.878Z,1007.82
2019-05-15T12:05:46.870Z,1007.71